createdAt,value
2019-05-21T00:00:33.760Z,97.60
2019-05-21T00:01:38.272Z,97.50
2019-05-21T00:02:43.339Z,97.50
2019-05-21T00:03:47.812Z,97.50
2019-05-21T00:04:52.907Z,97.40
2019-05-21T00:05:57.399Z,97.40
2019-05-21T00:07:02.461Z,97.40
2019-05-21T00:08:06.946Z,97.50
2019-05-21T00:09:11.983Z,97.50
2019-05-21T00:10:16.717Z,97.50
2019-05-21T00:11:21.917Z,97.50
2019-05-21T00:12:26.495Z,97.50
2019-05-21T00:13:32.106Z,97.50
2019-05-21T00:14:36.585Z,97.50
2019-05-21T00:15:41.753Z,97.50
2019-05-21T00:16:46.410Z,97.50
2019-05-21T00:17:51.516Z,97.50
2019-05-21T00:18:56.095Z,97.50
2019-05-21T00:20:01.176Z,97.50
2019-05-21T00:21:05.837Z,97.50
2019-05-21T00:22:10.961Z,97.50
2019-05-21T00:23:15.653Z,97.50
2019-05-21T00:24:20.711Z,97.40
2019-05-21T00:25:25.261Z,97.40
2019-05-21T00:26:30.549Z,97.40
2019-05-21T00:27:35.123Z,97.50
2019-05-21T00:28:39.550Z,97.50
2019-05-21T00:30:20.329Z,97.60
2019-05-21T00:32:01.736Z,97.60
2019-05-21T00:33:42.512Z,97.50
2019-05-21T00:35:25.154Z,97.60
2019-05-21T00:37:07.447Z,97.60
2019-05-21T00:38:51.813Z,97.60
2019-05-21T00:40:31.046Z,97.70
2019-05-21T00:42:00.442Z,97.80
2019-05-21T00:43:05.550Z,97.90
2019-05-21T00:44:10.764Z,98.00
2019-05-21T00:45:15.444Z,98.00
2019-05-21T00:46:20.668Z,98.10
2019-05-21T00:47:25.152Z,98.20
2019-05-21T00:48:31.547Z,98.30
2019-05-21T00:49:36.078Z,98.30
2019-05-21T00:50:41.123Z,98.30
2019-05-21T00:51:45.698Z,98.30
2019-05-21T00:52:50.771Z,98.30
2019-05-21T00:53:55.250Z,98.40
2019-05-21T00:55:00.281Z,98.50
2019-05-21T00:56:04.957Z,98.40
2019-05-21T00:57:10.070Z,98.40
2019-05-21T00:58:14.546Z,98.40
2019-05-21T00:59:19.775Z,98.40
2019-05-21T01:00:24.347Z,98.40
2019-05-21T01:01:29.407Z,98.30
2019-05-21T01:02:33.882Z,98.30
2019-05-21T01:03:39.075Z,98.30
2019-05-21T01:04:57.925Z,98.30
2019-05-21T01:05:50.322Z,98.20
2019-05-21T01:06:55.072Z,98.20
2019-05-21T01:08:00.129Z,98.20
2019-05-21T01:09:06.186Z,98.60
2019-05-21T01:10:12.168Z,98.60
2019-05-21T01:11:16.739Z,98.30
2019-05-21T01:12:21.786Z,98.20
2019-05-21T01:13:26.252Z,98.10
2019-05-21T01:14:31.322Z,98.10
2019-05-21T01:15:35.820Z,98.10
2019-05-21T01:16:40.912Z,98.30
2019-05-21T01:17:45.402Z,98.00
2019-05-21T01:18:50.965Z,98.10
2019-05-21T01:19:55.528Z,98.00
2019-05-21T01:21:00.591Z,98.10
2019-05-21T01:22:05.316Z,98.10
2019-05-21T01:23:10.344Z,98.10
2019-05-21T01:24:14.861Z,98.10
2019-05-21T01:25:19.890Z,98.10
2019-05-21T01:26:24.774Z,98.10
2019-05-21T01:27:29.867Z,98.10
2019-05-21T01:28:34.424Z,98.00
2019-05-21T01:29:39.452Z,98.40
2019-05-21T01:30:44.160Z,98.10
2019-05-21T01:31:49.182Z,98.10
2019-05-21T01:32:53.673Z,98.10
2019-05-21T01:33:58.908Z,98.10
2019-05-21T01:35:16.728Z,98.20
2019-05-21T01:36:11.690Z,98.10
2019-05-21T01:37:16.190Z,98.00
2019-05-21T01:38:21.233Z,98.10
2019-05-21T01:39:25.722Z,98.00
2019-05-21T01:40:30.758Z,98.00
2019-05-21T01:41:35.537Z,98.00
2019-05-21T01:42:40.717Z,98.00
2019-05-21T01:43:48.383Z,98.00
2019-05-21T01:44:53.506Z,98.00
2019-05-21T01:45:57.986Z,98.00
2019-05-21T01:47:03.171Z,98.00
2019-05-21T01:48:07.710Z,98.00
2019-05-21T01:49:12.822Z,98.10
2019-05-21T01:50:17.356Z,98.10
2019-05-21T01:51:22.555Z,97.90
2019-05-21T01:52:27.111Z,98.00
2019-05-21T01:53:32.375Z,98.10
2019-05-21T01:54:36.909Z,98.80
2019-05-21T01:55:41.936Z,97.90
2019-05-21T01:56:46.437Z,97.90
2019-05-21T01:57:51.606Z,97.90
2019-05-21T01:58:56.206Z,97.90
2019-05-21T02:00:01.305Z,97.90
2019-05-21T02:01:05.836Z,97.90
2019-05-21T02:02:11.268Z,97.90
2019-05-21T02:03:16.320Z,97.90
2019-05-21T02:04:22.141Z,97.90
2019-05-21T02:05:33.050Z,97.90
2019-05-21T02:06:34.489Z,97.90
2019-05-21T02:07:38.982Z,98.00
2019-05-21T02:08:44.105Z,98.00
2019-05-21T02:09:57.697Z,97.90
2019-05-21T02:11:03.008Z,98.00
2019-05-21T02:12:10.592Z,97.90
2019-05-21T02:13:14.496Z,97.90
2019-05-21T02:14:19.168Z,98.30
2019-05-21T02:15:24.275Z,98.00
2019-05-21T02:16:28.943Z,98.10
2019-05-21T02:17:33.959Z,98.10
2019-05-21T02:18:38.459Z,98.10
2019-05-21T02:19:43.486Z,98.40
2019-05-21T02:20:47.986Z,98.50
2019-05-21T02:21:53.025Z,98.00
2019-05-21T02:22:57.554Z,98.00
2019-05-21T02:24:03.027Z,98.40
2019-05-21T02:25:08.434Z,98.10
2019-05-21T02:26:13.588Z,98.20
2019-05-21T02:27:18.124Z,98.20
2019-05-21T02:28:23.200Z,98.10
2019-05-21T02:29:27.794Z,98.10
2019-05-21T02:30:32.923Z,98.10
2019-05-21T02:31:37.613Z,98.70
2019-05-21T02:32:42.779Z,98.60
2019-05-21T02:33:47.312Z,98.10
2019-05-21T02:34:52.535Z,98.00
2019-05-21T02:35:57.262Z,98.60
2019-05-21T02:37:05.920Z,98.70
2019-05-21T02:38:08.439Z,97.90
2019-05-21T02:39:13.542Z,97.80
2019-05-21T02:40:19.641Z,97.70
2019-05-21T02:41:24.785Z,97.70
2019-05-21T02:42:29.535Z,97.80
2019-05-21T02:43:34.957Z,97.70
2019-05-21T02:44:39.820Z,98.10
2019-05-21T02:45:44.844Z,98.70
2019-05-21T02:46:49.329Z,97.90
2019-05-21T02:47:54.430Z,97.60
2019-05-21T02:48:59.011Z,97.80
2019-05-21T02:50:06.110Z,97.70
2019-05-21T02:51:11.647Z,98.70
2019-05-21T02:52:16.686Z,98.10
2019-05-21T02:53:21.179Z,97.90
2019-05-21T02:54:40.395Z,97.70
2019-05-21T02:55:32.613Z,97.70
2019-05-21T02:56:37.704Z,97.50
2019-05-21T02:57:42.235Z,97.70
2019-05-21T02:58:47.644Z,97.60
2019-05-21T02:59:54.216Z,97.70
2019-05-21T03:01:03.378Z,97.70
2019-05-21T03:02:12.178Z,97.70
2019-05-21T03:03:18.299Z,97.80
2019-05-21T03:04:22.776Z,97.70
2019-05-21T03:05:27.970Z,97.70
2019-05-21T03:06:32.492Z,97.80
2019-05-21T03:07:37.685Z,97.70
2019-05-21T03:08:42.172Z,97.80
2019-05-21T03:09:50.233Z,97.80
2019-05-21T03:10:54.793Z,97.80
2019-05-21T03:11:59.803Z,97.70
2019-05-21T03:13:04.801Z,97.70
2019-05-21T03:14:09.914Z,97.80
2019-05-21T03:15:14.821Z,97.90
2019-05-21T03:16:19.944Z,97.80
2019-05-21T03:17:24.533Z,97.90
2019-05-21T03:18:29.645Z,97.90
2019-05-21T03:19:34.295Z,98.00
2019-05-21T03:20:39.317Z,97.90
2019-05-21T03:21:43.843Z,98.40
2019-05-21T03:22:48.873Z,98.70
2019-05-21T03:23:53.572Z,98.00
2019-05-21T03:25:02.145Z,98.10
2019-05-21T03:26:05.069Z,97.90
2019-05-21T03:27:10.241Z,97.80
2019-05-21T03:28:14.853Z,97.80
2019-05-21T03:29:20.011Z,97.80
2019-05-21T03:30:24.644Z,97.80
2019-05-21T03:31:29.867Z,97.80
2019-05-21T03:32:34.574Z,97.80
2019-05-21T03:33:39.806Z,97.80
2019-05-21T03:34:44.294Z,97.90
2019-05-21T03:35:49.509Z,97.90
2019-05-21T03:36:54.655Z,97.90
2019-05-21T03:37:59.706Z,98.00
2019-05-21T03:39:05.426Z,97.80
2019-05-21T03:40:11.086Z,97.90
2019-05-21T03:41:15.547Z,97.80
2019-05-21T03:42:20.759Z,97.90
2019-05-21T03:43:25.244Z,97.90
2019-05-21T03:44:30.345Z,98.00
2019-05-21T03:45:34.831Z,97.90
2019-05-21T03:46:40.029Z,98.30
2019-05-21T03:47:44.603Z,98.10
2019-05-21T03:48:49.758Z,98.00
2019-05-21T03:49:54.250Z,98.00
2019-05-21T03:50:59.402Z,98.00
2019-05-21T03:52:04.120Z,98.10
2019-05-21T03:53:09.145Z,98.10
2019-05-21T03:54:13.741Z,98.10
2019-05-21T03:55:18.971Z,98.00
2019-05-21T03:56:23.472Z,98.00
2019-05-21T03:57:28.548Z,98.10
2019-05-21T03:58:33.056Z,98.10
2019-05-21T03:59:38.549Z,98.10
2019-05-21T04:00:43.034Z,98.10
2019-05-21T04:01:48.140Z,98.10
2019-05-21T04:02:52.615Z,98.10
2019-05-21T04:03:57.745Z,98.10
2019-05-21T04:05:02.221Z,98.10
2019-05-21T04:06:07.383Z,98.10
2019-05-21T04:07:12.029Z,98.10
2019-05-21T04:08:17.075Z,97.80
2019-05-21T04:09:21.598Z,98.00
2019-05-21T04:10:26.960Z,97.90
2019-05-21T04:11:31.484Z,97.90
2019-05-21T04:12:36.515Z,98.10
2019-05-21T04:13:41.123Z,97.90
2019-05-21T04:14:47.243Z,98.00
2019-05-21T04:15:55.768Z,98.10
2019-05-21T04:17:02.422Z,98.20
2019-05-21T04:18:25.075Z,98.20
2019-05-21T04:19:31.194Z,98.20
2019-05-21T04:20:36.225Z,98.10
2019-05-21T04:21:40.989Z,98.20
2019-05-21T04:22:47.347Z,98.00
2019-05-21T04:23:51.826Z,98.20
2019-05-21T04:24:56.842Z,98.30
2019-05-21T04:26:01.685Z,98.20
2019-05-21T04:27:06.793Z,98.20
2019-05-21T04:28:11.434Z,98.10
2019-05-21T04:29:16.555Z,98.20
2019-05-21T04:30:21.056Z,98.20
2019-05-21T04:31:26.181Z,98.20
2019-05-21T04:32:30.839Z,98.10
2019-05-21T04:33:35.877Z,98.20
2019-05-21T04:34:40.417Z,98.30
2019-05-21T04:35:45.427Z,97.60
2019-05-21T04:36:49.915Z,98.20
2019-05-21T04:37:55.135Z,98.20
2019-05-21T04:38:59.651Z,98.20
2019-05-21T04:40:05.344Z,98.30
2019-05-21T04:41:10.003Z,98.70
2019-05-21T04:42:15.059Z,98.30
2019-05-21T04:43:19.556Z,98.70
2019-05-21T04:44:24.637Z,98.20
2019-05-21T04:45:29.209Z,98.20
2019-05-21T04:46:34.275Z,98.20
2019-05-21T04:47:38.757Z,98.10
2019-05-21T04:48:43.912Z,98.10
2019-05-21T04:49:48.397Z,98.00
2019-05-21T04:50:53.572Z,98.10
2019-05-21T04:51:58.085Z,98.00
2019-05-21T04:53:03.338Z,98.00
2019-05-21T04:54:07.875Z,98.10
2019-05-21T04:55:13.068Z,98.00
2019-05-21T04:56:17.625Z,98.00
2019-05-21T04:57:22.635Z,98.00
2019-05-21T04:58:27.296Z,98.00
2019-05-21T04:59:33.651Z,98.10
2019-05-21T05:00:38.246Z,98.00
2019-05-21T05:01:43.288Z,97.70
2019-05-21T05:02:47.741Z,98.00
2019-05-21T05:03:52.832Z,98.00
2019-05-21T05:04:57.306Z,98.10
2019-05-21T05:06:02.356Z,98.00
2019-05-21T05:07:06.851Z,98.20
2019-05-21T05:08:11.967Z,98.20
2019-05-21T05:09:16.573Z,98.00
2019-05-21T05:10:21.642Z,98.10
2019-05-21T05:11:26.205Z,98.20
2019-05-21T05:12:31.485Z,98.20
2019-05-21T05:13:36.014Z,98.20
2019-05-21T05:14:41.157Z,98.00
2019-05-21T05:15:45.921Z,98.10
2019-05-21T05:16:51.111Z,98.10
2019-05-21T05:17:55.704Z,98.00
2019-05-21T05:19:00.728Z,98.10
2019-05-21T05:20:06.162Z,98.20
2019-05-21T05:21:11.170Z,98.10
2019-05-21T05:22:15.792Z,98.10
2019-05-21T05:23:20.833Z,98.20
2019-05-21T05:24:25.436Z,98.10
2019-05-21T05:25:30.623Z,98.10
2019-05-21T05:26:35.372Z,98.20
2019-05-21T05:27:40.514Z,98.10
2019-05-21T05:28:45.048Z,98.30
2019-05-21T05:29:50.159Z,98.00
2019-05-21T05:30:54.645Z,98.10
2019-05-21T05:31:59.678Z,98.00
2019-05-21T05:33:04.324Z,98.10
2019-05-21T05:34:09.340Z,98.00
2019-05-21T05:35:14.246Z,97.90
2019-05-21T05:36:19.427Z,98.00
2019-05-21T05:37:23.931Z,98.10
2019-05-21T05:38:28.949Z,98.20
2019-05-21T05:39:33.528Z,98.20
2019-05-21T05:40:38.645Z,98.00
2019-05-21T05:41:43.134Z,98.00
2019-05-21T05:42:48.320Z,98.10
2019-05-21T05:43:53.119Z,98.10
2019-05-21T05:44:58.219Z,98.10
2019-05-21T05:46:02.784Z,98.20
2019-05-21T05:47:07.805Z,98.20
2019-05-21T05:48:12.730Z,98.00
2019-05-21T05:49:36.854Z,97.90
2019-05-21T05:50:52.151Z,98.10
2019-05-21T05:51:57.257Z,97.80
2019-05-21T05:53:01.797Z,98.00
2019-05-21T05:54:07.871Z,98.00
2019-05-21T05:55:12.948Z,98.10
2019-05-21T05:56:17.979Z,98.20
2019-05-21T05:57:22.471Z,98.20
2019-05-21T05:58:27.500Z,98.10
2019-05-21T05:59:32.064Z,98.10
2019-05-21T06:00:37.173Z,98.00
2019-05-21T06:01:41.629Z,98.00
2019-05-21T06:02:46.687Z,98.00
2019-05-21T06:03:51.252Z,98.00
2019-05-21T06:04:56.739Z,98.00
2019-05-21T06:06:01.278Z,98.10
2019-05-21T06:07:06.395Z,98.10
2019-05-21T06:08:10.938Z,98.30
2019-05-21T06:09:15.994Z,98.20
2019-05-21T06:10:20.836Z,98.30
2019-05-21T06:11:26.060Z,98.20
2019-05-21T06:12:30.541Z,98.30
2019-05-21T06:13:35.665Z,98.20
2019-05-21T06:14:40.147Z,98.30
2019-05-21T06:15:45.202Z,98.10
2019-05-21T06:16:49.784Z,98.10
2019-05-21T06:17:54.908Z,98.20
2019-05-21T06:18:59.461Z,97.90
2019-05-21T06:20:06.831Z,98.10
2019-05-21T06:21:11.308Z,98.10
2019-05-21T06:22:16.317Z,97.90
2019-05-21T06:23:20.792Z,98.10
2019-05-21T06:24:25.893Z,98.20
2019-05-21T06:25:30.401Z,98.10
2019-05-21T06:26:35.635Z,98.20
2019-05-21T06:27:40.393Z,98.10
2019-05-21T06:28:45.469Z,98.10
2019-05-21T06:29:49.947Z,98.00
2019-05-21T06:30:54.965Z,98.20
2019-05-21T06:31:59.603Z,98.20
2019-05-21T06:33:04.691Z,98.00
2019-05-21T06:34:09.304Z,98.00
2019-05-21T06:35:15.190Z,98.10
2019-05-21T06:36:19.787Z,98.20
2019-05-21T06:37:24.888Z,98.00
2019-05-21T06:38:29.555Z,98.10
2019-05-21T06:39:34.657Z,97.80
2019-05-21T06:40:39.287Z,97.80
2019-05-21T06:41:44.965Z,97.70
2019-05-21T06:42:49.447Z,97.80
2019-05-21T06:43:54.738Z,97.80
2019-05-21T06:44:59.204Z,97.60
2019-05-21T06:46:04.482Z,97.60
2019-05-21T06:47:09.003Z,97.50
2019-05-21T06:48:14.123Z,97.50
2019-05-21T06:49:18.658Z,97.60
2019-05-21T06:50:23.966Z,97.60
2019-05-21T06:51:28.508Z,97.30
2019-05-21T06:52:33.532Z,97.60
2019-05-21T06:53:38.118Z,97.60
2019-05-21T06:54:43.141Z,97.10
2019-05-21T06:55:47.750Z,97.60
2019-05-21T06:56:52.976Z,97.50
2019-05-21T06:57:57.494Z,97.60
2019-05-21T06:59:02.599Z,97.50
2019-05-21T07:00:08.567Z,97.70
2019-05-21T07:01:13.599Z,97.40
2019-05-21T07:02:18.262Z,97.40
2019-05-21T07:03:23.361Z,97.40
2019-05-21T07:04:27.921Z,97.30
2019-05-21T07:05:32.970Z,97.20
2019-05-21T07:06:37.414Z,97.30
2019-05-21T07:07:42.636Z,97.10
2019-05-21T07:08:47.103Z,97.10
2019-05-21T07:09:52.260Z,97.20
2019-05-21T07:10:56.871Z,97.10
2019-05-21T07:12:02.084Z,97.20
2019-05-21T07:13:06.637Z,97.30
2019-05-21T07:14:11.652Z,97.30
2019-05-21T07:15:16.365Z,97.30
2019-05-21T07:16:21.469Z,97.30
2019-05-21T07:17:26.006Z,97.30
2019-05-21T07:18:31.052Z,97.40
2019-05-21T07:19:35.650Z,97.30
2019-05-21T07:20:40.749Z,97.40
2019-05-21T07:21:45.238Z,97.30
2019-05-21T07:22:50.509Z,97.20
2019-05-21T07:23:55.321Z,97.40
2019-05-21T07:25:00.388Z,97.30
2019-05-21T07:26:05.007Z,97.40
2019-05-21T07:27:10.097Z,97.40
2019-05-21T07:28:14.611Z,97.50
2019-05-21T07:29:19.719Z,97.10
2019-05-21T07:30:24.214Z,97.30
2019-05-21T07:31:29.261Z,97.30
2019-05-21T07:32:33.800Z,97.30
2019-05-21T07:33:38.832Z,97.10
2019-05-21T07:34:43.438Z,97.10
2019-05-21T07:35:48.444Z,97.20
2019-05-21T07:36:53.105Z,97.20
2019-05-21T07:37:58.132Z,97.40
2019-05-21T07:39:02.686Z,97.50
2019-05-21T07:40:09.205Z,97.50
2019-05-21T07:41:14.198Z,97.40
2019-05-21T07:42:19.328Z,97.30
2019-05-21T07:43:23.908Z,97.30
2019-05-21T07:44:29.015Z,97.40
2019-05-21T07:45:33.498Z,97.40
2019-05-21T07:46:39.788Z,97.30
2019-05-21T07:47:44.924Z,97.30
2019-05-21T07:48:49.955Z,97.10
2019-05-21T07:49:54.664Z,97.10
2019-05-21T07:50:59.799Z,97.30
2019-05-21T07:52:04.636Z,97.30
2019-05-21T07:53:09.958Z,97.20
2019-05-21T07:54:14.582Z,97.40
2019-05-21T07:55:19.893Z,97.20
2019-05-21T07:56:24.432Z,97.40
2019-05-21T07:57:29.449Z,97.50
2019-05-21T07:58:33.994Z,97.90
2019-05-21T07:59:39.202Z,97.70
2019-05-21T08:00:43.753Z,97.80
2019-05-21T08:01:48.857Z,97.70
2019-05-21T08:02:53.343Z,97.50
2019-05-21T08:03:58.480Z,97.60
2019-05-21T08:05:03.325Z,97.50
2019-05-21T08:06:08.741Z,97.40
2019-05-21T08:07:13.270Z,97.40
2019-05-21T08:08:18.365Z,97.40
2019-05-21T08:09:22.858Z,97.50
2019-05-21T08:10:27.978Z,97.50
2019-05-21T08:11:32.498Z,97.50
2019-05-21T08:12:39.697Z,97.30
2019-05-21T08:13:43.711Z,97.40
2019-05-21T08:14:48.738Z,97.20
2019-05-21T08:15:53.301Z,97.40
2019-05-21T08:16:58.420Z,97.20
2019-05-21T08:18:02.980Z,97.10
2019-05-21T08:19:07.987Z,97.20
2019-05-21T08:20:13.235Z,97.30
2019-05-21T08:21:18.381Z,97.30
2019-05-21T08:22:22.861Z,97.10
2019-05-21T08:23:27.976Z,97.10
2019-05-21T08:24:32.503Z,97.20
2019-05-21T08:25:37.534Z,97.00
2019-05-21T08:26:42.125Z,97.20
2019-05-21T08:27:47.195Z,97.00
2019-05-21T08:28:51.661Z,97.20
2019-05-21T08:29:56.675Z,97.30
2019-05-21T08:31:02.357Z,97.10
2019-05-21T08:32:07.612Z,97.20
2019-05-21T08:33:12.124Z,97.10
2019-05-21T08:34:17.301Z,97.10
2019-05-21T08:35:21.761Z,97.30
2019-05-21T08:36:26.793Z,97.30
2019-05-21T08:37:31.341Z,97.50
2019-05-21T08:38:36.454Z,97.50
2019-05-21T08:39:40.968Z,97.50
2019-05-21T08:40:46.040Z,97.30
2019-05-21T08:41:50.565Z,97.30
2019-05-21T08:42:55.609Z,97.20
2019-05-21T08:44:00.084Z,97.30
2019-05-21T08:45:08.570Z,97.40
2019-05-21T08:46:13.039Z,97.30
2019-05-21T08:47:18.200Z,97.30
2019-05-21T08:48:22.720Z,97.40
2019-05-21T08:49:27.763Z,97.30
2019-05-21T08:50:32.514Z,97.30
2019-05-21T08:51:37.527Z,97.50
2019-05-21T08:52:42.088Z,97.50
2019-05-21T08:53:47.241Z,97.30
2019-05-21T08:54:55.806Z,97.30
2019-05-21T08:55:58.940Z,97.20
2019-05-21T08:57:03.408Z,97.30
2019-05-21T08:58:08.465Z,97.40
2019-05-21T08:59:12.990Z,97.60
2019-05-21T09:00:19.923Z,97.70
2019-05-21T09:01:24.457Z,97.80
2019-05-21T09:02:29.595Z,97.70
2019-05-21T09:03:34.066Z,97.60
2019-05-21T09:04:46.465Z,97.50
2019-05-21T09:05:45.416Z,97.40
2019-05-21T09:06:50.523Z,97.50
2019-05-21T09:07:55.412Z,97.60
2019-05-21T09:09:00.518Z,97.50
2019-05-21T09:10:08.136Z,97.60
2019-05-21T09:11:13.264Z,97.70
2019-05-21T09:12:17.729Z,97.50
2019-05-21T09:13:22.816Z,97.50
2019-05-21T09:14:27.297Z,97.60
2019-05-21T09:15:32.464Z,97.80
2019-05-21T09:16:36.971Z,98.00
2019-05-21T09:17:42.142Z,97.90
2019-05-21T09:18:46.658Z,97.80
2019-05-21T09:19:51.739Z,97.90
2019-05-21T09:20:56.212Z,97.80
2019-05-21T09:22:01.276Z,97.90
2019-05-21T09:23:05.819Z,97.70
2019-05-21T09:24:11.088Z,97.70
2019-05-21T09:25:15.541Z,97.80
2019-05-21T09:26:20.565Z,97.60
2019-05-21T09:27:25.134Z,97.70
2019-05-21T09:28:30.160Z,97.70
2019-05-21T09:29:34.654Z,97.70
2019-05-21T09:30:39.666Z,97.90
2019-05-21T09:31:44.209Z,98.10
2019-05-21T09:32:49.267Z,97.90
2019-05-21T09:33:53.744Z,97.90
2019-05-21T09:34:58.776Z,97.80
2019-05-21T09:36:03.312Z,97.70
2019-05-21T09:37:19.279Z,97.60
2019-05-21T09:38:14.585Z,97.70
2019-05-21T09:39:19.589Z,97.80
2019-05-21T09:40:24.998Z,97.40
2019-05-21T09:41:30.101Z,97.50
2019-05-21T09:42:34.667Z,97.80
2019-05-21T09:43:39.708Z,97.50
2019-05-21T09:44:44.174Z,97.10
2019-05-21T09:45:49.196Z,97.40
2019-05-21T09:46:53.790Z,97.30
2019-05-21T09:47:59.009Z,97.50
2019-05-21T09:49:03.540Z,97.40
2019-05-21T09:50:10.472Z,97.60
2019-05-21T09:51:19.781Z,97.70
2019-05-21T09:52:21.829Z,97.60
2019-05-21T09:53:26.392Z,97.80
2019-05-21T09:54:31.408Z,98.00
2019-05-21T09:55:35.908Z,97.90
2019-05-21T09:56:41.006Z,97.40
2019-05-21T09:57:49.813Z,97.80
2019-05-21T09:58:55.993Z,97.90
2019-05-21T10:00:02.922Z,97.90
2019-05-21T10:01:18.128Z,97.90
2019-05-21T10:02:27.234Z,97.90
2019-05-21T10:03:33.351Z,98.10
2019-05-21T10:04:38.410Z,97.80
2019-05-21T10:05:42.905Z,97.50
2019-05-21T10:06:48.068Z,97.50
2019-05-21T10:07:52.547Z,97.60
2019-05-21T10:08:57.594Z,97.70
2019-05-21T10:10:02.308Z,97.70
2019-05-21T10:11:07.472Z,97.60
2019-05-21T10:12:12.012Z,97.30
2019-05-21T10:13:17.037Z,97.30
2019-05-21T10:14:21.549Z,97.60
2019-05-21T10:15:26.742Z,97.40
2019-05-21T10:16:31.225Z,96.80
2019-05-21T10:17:36.318Z,96.80
2019-05-21T10:18:40.863Z,96.60
2019-05-21T10:19:45.890Z,96.70
2019-05-21T10:20:50.373Z,96.60
2019-05-21T10:21:57.141Z,96.10
2019-05-21T10:23:01.998Z,96.40
2019-05-21T10:24:07.178Z,96.50
2019-05-21T10:25:11.875Z,96.70
2019-05-21T10:26:17.023Z,96.80
2019-05-21T10:27:21.588Z,96.80
2019-05-21T10:28:26.693Z,96.90
2019-05-21T10:29:31.150Z,96.80
2019-05-21T10:30:36.259Z,96.40
2019-05-21T10:31:40.746Z,96.20
2019-05-21T10:32:45.790Z,96.30
2019-05-21T10:33:50.510Z,96.50
2019-05-21T10:34:55.536Z,96.40
2019-05-21T10:36:00.102Z,96.60
2019-05-21T10:37:05.216Z,96.50
2019-05-21T10:38:09.829Z,96.40
2019-05-21T10:39:14.925Z,96.50
2019-05-21T10:40:19.456Z,96.50
2019-05-21T10:41:24.678Z,96.30
2019-05-21T10:42:29.301Z,96.50
2019-05-21T10:43:34.493Z,96.80
2019-05-21T10:44:39.079Z,96.80
2019-05-21T10:45:44.170Z,95.90
2019-05-21T10:46:48.668Z,96.20
2019-05-21T10:47:53.688Z,96.30
2019-05-21T10:48:58.228Z,96.20
2019-05-21T10:50:03.506Z,96.30
2019-05-21T10:51:08.037Z,96.50
2019-05-21T10:52:13.214Z,96.20
2019-05-21T10:53:17.680Z,96.30
2019-05-21T10:54:22.845Z,96.50
2019-05-21T10:55:27.311Z,95.90
2019-05-21T10:56:46.837Z,96.30
2019-05-21T10:57:39.081Z,95.80
2019-05-21T10:58:44.192Z,96.10
2019-05-21T10:59:48.771Z,96.20
2019-05-21T11:00:54.927Z,96.70
2019-05-21T11:02:09.959Z,96.50
2019-05-21T11:03:28.116Z,96.70
2019-05-21T11:04:37.217Z,96.40
2019-05-21T11:05:43.504Z,96.30
2019-05-21T11:06:48.977Z,95.70
2019-05-21T11:07:53.901Z,94.40
2019-05-21T11:08:58.539Z,95.40
2019-05-21T11:10:05.143Z,95.70
2019-05-21T11:11:09.944Z,95.70
2019-05-21T11:12:14.923Z,96.10
2019-05-21T11:13:19.812Z,94.90
2019-05-21T11:14:24.727Z,94.80
2019-05-21T11:15:29.387Z,95.40
2019-05-21T11:16:34.242Z,94.90
2019-05-21T11:17:50.079Z,94.70
2019-05-21T11:18:45.642Z,94.70
2019-05-21T11:19:50.278Z,94.90
2019-05-21T11:20:55.403Z,95.10
2019-05-21T11:22:00.109Z,95.40
2019-05-21T11:23:05.097Z,94.90
2019-05-21T11:24:09.832Z,95.30
2019-05-21T11:25:14.861Z,94.80
2019-05-21T11:26:19.525Z,94.50
2019-05-21T11:27:24.469Z,94.40
2019-05-21T11:28:29.206Z,94.30
2019-05-21T11:29:34.092Z,93.20
2019-05-21T11:30:38.727Z,94.30
2019-05-21T11:31:56.344Z,94.50
2019-05-21T11:32:50.213Z,94.10
2019-05-21T11:33:55.126Z,93.60
2019-05-21T11:34:59.868Z,93.80
2019-05-21T11:36:04.827Z,94.40
2019-05-21T11:37:09.917Z,94.20
2019-05-21T11:38:14.779Z,94.30
2019-05-21T11:39:19.481Z,94.10
2019-05-21T11:40:25.021Z,94.10
2019-05-21T11:41:29.684Z,94.50
2019-05-21T11:42:34.532Z,94.60
2019-05-21T11:43:39.196Z,94.60
2019-05-21T11:44:44.161Z,94.30
2019-05-21T11:45:48.881Z,94.80
2019-05-21T11:46:53.795Z,94.90
2019-05-21T11:47:58.458Z,94.60
2019-05-21T11:49:03.390Z,94.20
2019-05-21T11:50:09.171Z,94.60
2019-05-21T11:51:14.026Z,94.50
2019-05-21T11:52:18.847Z,94.80
2019-05-21T11:53:23.793Z,94.60
2019-05-21T11:54:28.510Z,93.10
2019-05-21T11:55:33.424Z,93.70
2019-05-21T11:56:38.245Z,94.30
2019-05-21T11:57:43.238Z,94.60
2019-05-21T11:58:48.008Z,94.80
2019-05-21T11:59:52.989Z,94.60
2019-05-21T12:00:57.788Z,94.30
2019-05-21T12:02:02.665Z,94.70
2019-05-21T12:03:07.413Z,94.20
2019-05-21T12:04:12.473Z,94.40
2019-05-21T12:05:17.245Z,94.40
2019-05-21T12:06:22.097Z,94.50
2019-05-21T12:07:26.769Z,94.30
2019-05-21T12:08:31.631Z,93.50
2019-05-21T12:09:36.406Z,94.00
2019-05-21T12:10:41.247Z,94.00
2019-05-21T12:11:45.926Z,94.10
2019-05-21T12:12:50.835Z,94.10
2019-05-21T12:13:55.570Z,93.60
2019-05-21T12:15:00.438Z,94.20
2019-05-21T12:16:05.225Z,94.10
2019-05-21T12:17:10.073Z,94.10
2019-05-21T12:18:14.734Z,94.20
2019-05-21T12:19:19.572Z,94.00
2019-05-21T12:20:36.056Z,94.20
2019-05-21T12:21:30.966Z,94.20
2019-05-21T12:22:35.716Z,93.30
2019-05-21T12:23:40.591Z,93.80
2019-05-21T12:24:45.556Z,93.40
2019-05-21T12:25:50.533Z,93.70
2019-05-21T12:26:55.190Z,93.80
2019-05-21T12:28:00.065Z,93.50
2019-05-21T12:29:04.846Z,93.90
2019-05-21T12:30:10.183Z,93.90
2019-05-21T12:31:14.908Z,93.90
2019-05-21T12:32:21.079Z,94.00
2019-05-21T12:33:26.129Z,94.50
2019-05-21T12:34:31.050Z,94.70
2019-05-21T12:35:35.740Z,94.90
2019-05-21T12:36:40.654Z,94.90
2019-05-21T12:37:45.445Z,94.80
2019-05-21T12:38:50.275Z,95.00
2019-05-21T12:39:54.929Z,95.00
2019-05-21T12:40:59.798Z,95.00
2019-05-21T12:42:04.543Z,95.30
2019-05-21T12:43:09.461Z,95.10
2019-05-21T12:44:14.236Z,95.20
2019-05-21T12:45:19.202Z,94.70
2019-05-21T12:46:23.855Z,94.80
2019-05-21T12:47:28.713Z,94.60
2019-05-21T12:48:33.503Z,94.50
2019-05-21T12:49:38.352Z,94.20
2019-05-21T12:50:42.995Z,94.30
2019-05-21T12:51:47.846Z,94.50
2019-05-21T12:52:52.518Z,94.50
2019-05-21T12:53:57.507Z,94.70
2019-05-21T12:55:02.230Z,94.60
2019-05-21T12:56:07.136Z,94.60
2019-05-21T12:57:11.864Z,94.60
2019-05-21T12:58:16.725Z,94.50
2019-05-21T12:59:21.373Z,94.70
2019-05-21T13:00:31.742Z,94.70
2019-05-21T13:01:36.416Z,94.60
2019-05-21T13:02:41.349Z,94.80
2019-05-21T13:03:46.018Z,94.70
2019-05-21T13:04:50.916Z,94.90
2019-05-21T13:05:55.632Z,94.90
2019-05-21T13:07:00.568Z,94.80
2019-05-21T13:08:05.868Z,94.80
2019-05-21T13:09:10.787Z,94.40
2019-05-21T13:10:15.637Z,94.60
2019-05-21T13:11:20.743Z,94.80
2019-05-21T13:12:25.432Z,94.90
2019-05-21T13:13:30.368Z,94.30
2019-05-21T13:14:35.095Z,94.70
2019-05-21T13:15:39.952Z,94.60
2019-05-21T13:16:44.672Z,94.60
2019-05-21T13:17:49.825Z,94.50
2019-05-21T13:18:54.513Z,94.50
2019-05-21T13:19:59.353Z,94.60
2019-05-21T13:21:04.035Z,94.50
2019-05-21T13:22:09.004Z,94.20
2019-05-21T13:23:13.825Z,94.60
2019-05-21T13:24:18.705Z,94.80
2019-05-21T13:25:23.476Z,94.90
2019-05-21T13:26:28.328Z,94.80
2019-05-21T13:27:33.048Z,94.80
2019-05-21T13:28:37.967Z,94.70
2019-05-21T13:29:42.666Z,94.90
2019-05-21T13:30:47.549Z,95.00
2019-05-21T13:31:52.215Z,95.20
2019-05-21T13:32:57.042Z,95.30
2019-05-21T13:34:01.703Z,95.30
2019-05-21T13:35:07.925Z,95.20
2019-05-21T13:36:12.696Z,95.40
2019-05-21T13:37:17.581Z,95.30
2019-05-21T13:38:22.378Z,95.50
2019-05-21T13:39:27.223Z,95.20
2019-05-21T13:40:32.535Z,95.30
2019-05-21T13:41:37.380Z,95.40
2019-05-21T13:42:42.018Z,95.30
2019-05-21T13:43:46.854Z,95.50
2019-05-21T13:44:51.674Z,95.30
2019-05-21T13:45:56.806Z,95.30
2019-05-21T13:47:01.855Z,95.30
2019-05-21T13:48:06.781Z,95.20
2019-05-21T13:49:11.665Z,95.50
2019-05-21T13:50:16.698Z,95.60
2019-05-21T13:51:21.431Z,95.80
2019-05-21T13:52:26.273Z,95.60
2019-05-21T13:53:31.067Z,95.60
2019-05-21T13:54:36.130Z,95.40
2019-05-21T13:55:40.879Z,95.20
2019-05-21T13:56:45.712Z,95.10
2019-05-21T13:57:50.407Z,95.30
2019-05-21T13:58:55.376Z,95.50
2019-05-21T14:00:00.046Z,95.70
2019-05-21T14:01:05.904Z,95.40
2019-05-21T14:02:11.931Z,95.50
2019-05-21T14:03:16.865Z,95.40